createdAt,value
2023-05-06T00:03:28.474Z,11.24
2023-05-06T00:06:26.052Z,11.22
2023-05-06T00:10:03.069Z,11.24
2023-05-06T00:17:50.954Z,11.15
2023-05-06T00:21:30.697Z,11.16
2023-05-06T00:24:26.160Z,11.13
2023-05-06T00:27:48.118Z,11.06
2023-05-06T00:35:32.027Z,11.02
2023-05-06T00:43:32.902Z,11.05
2023-05-06T00:47:08.926Z,11.05
2023-05-06T00:53:56.916Z,11.00
2023-05-06T00:56:27.263Z,11.02
2023-05-06T00:59:23.061Z,11.06
2023-05-06T01:02:30.721Z,11.06
2023-05-06T01:05:04.363Z,11.07
2023-05-06T01:11:58.261Z,10.91
2023-05-06T01:23:51.163Z,10.79
2023-05-06T01:26:21.003Z,10.80
2023-05-06T01:33:12.884Z,10.76
2023-05-06T01:44:08.480Z,10.62
2023-05-06T01:51:01.441Z,10.48
2023-05-06T01:58:26.005Z,10.52
2023-05-06T02:02:03.709Z,10.47
2023-05-06T02:05:33.891Z,10.42
2023-05-06T02:09:10.827Z,10.36
2023-05-06T02:12:51.012Z,10.34
2023-05-06T02:15:22.075Z,10.30
2023-05-06T02:17:57.344Z,10.24
2023-05-06T02:24:52.290Z,10.27
2023-05-06T02:31:48.692Z,10.09
2023-05-06T02:34:45.552Z,10.00
2023-05-06T02:37:14.816Z,9.97
2023-05-06T02:40:15.261Z,9.93
2023-05-06T02:43:48.163Z,9.82
2023-05-06T02:46:18.644Z,9.81
2023-05-06T02:48:52.793Z,9.81
2023-05-06T02:55:33.345Z,9.87
2023-05-06T03:02:33.210Z,9.85
2023-05-06T03:09:29.193Z,9.69
2023-05-06T03:16:15.411Z,9.44
2023-05-06T03:19:37.597Z,9.42
2023-05-06T03:22:34.811Z,9.35
2023-05-06T03:25:29.245Z,9.32
2023-05-06T03:28:28.946Z,9.35
2023-05-06T03:32:00.700Z,9.41
2023-05-06T03:34:45.563Z,9.51
2023-05-06T03:37:22.308Z,9.54
2023-05-06T03:43:49.532Z,9.54
2023-05-06T03:50:29.165Z,9.55
2023-05-06T03:53:12.088Z,9.56
2023-05-06T04:00:12.149Z,9.58
2023-05-06T04:07:15.191Z,9.55
2023-05-06T04:09:56.716Z,9.49
2023-05-06T04:16:57.493Z,9.52
2023-05-06T04:24:52.892Z,9.68
2023-05-06T04:28:30.891Z,9.78
2023-05-06T04:35:25.786Z,9.99
2023-05-06T04:42:17.648Z,10.24
2023-05-06T04:49:12.707Z,10.37
2023-05-06T04:52:11.721Z,10.45
2023-05-06T04:55:33.522Z,10.52
2023-05-06T04:59:03.866Z,10.62
2023-05-06T05:02:50.631Z,10.72
2023-05-06T05:09:52.358Z,10.88
2023-05-06T05:16:46.404Z,11.05
2023-05-06T05:19:48.522Z,11.15
2023-05-06T05:22:17.977Z,11.22
2023-05-06T05:28:59.749Z,11.31
2023-05-06T05:35:56.193Z,11.53
2023-05-06T05:39:02.700Z,11.70
2023-05-06T05:45:58.883Z,12.18
2023-05-06T05:52:45.326Z,12.53
2023-05-06T05:59:33.023Z,13.05
2023-05-06T06:02:42.765Z,13.15
2023-05-06T06:09:30.164Z,13.54
2023-05-06T06:12:36.660Z,13.73
2023-05-06T06:16:06.090Z,13.92
2023-05-06T06:23:03.622Z,14.46
2023-05-06T06:29:53.356Z,14.84
2023-05-06T06:36:46.326Z,14.94
2023-05-06T06:43:36.062Z,15.14
2023-05-06T06:47:11.525Z,15.21
2023-05-06T06:54:06.951Z,15.46
2023-05-06T07:00:55.743Z,15.71
2023-05-06T07:03:49.932Z,15.83
2023-05-06T07:06:46.982Z,16.01
2023-05-06T07:17:53.625Z,16.94
2023-05-06T07:29:12.300Z,17.81
2023-05-06T07:32:11.204Z,17.95
2023-05-06T07:39:00.983Z,18.43
2023-05-06T07:50:15.108Z,19.03
2023-05-06T07:57:03.534Z,19.50
2023-05-06T08:03:56.633Z,20.05
2023-05-06T08:10:45.060Z,20.39
2023-05-06T08:17:57.588Z,20.58
2023-05-06T08:36:40.494Z,21.15
2023-05-06T08:43:53.551Z,21.36
2023-05-06T08:50:51.166Z,21.80
2023-05-06T08:57:35.350Z,22.27
2023-05-06T09:08:59.528Z,22.57
2023-05-06T09:15:55.781Z,22.90
2023-05-06T09:22:43.542Z,23.17
2023-05-06T09:30:01.901Z,23.31
2023-05-06T09:36:58.926Z,23.77
2023-05-06T09:43:46.292Z,24.03
2023-05-06T09:50:50.700Z,23.73
2023-05-06T09:57:35.710Z,23.77
2023-05-06T10:09:02.366Z,23.61
2023-05-06T10:15:57.258Z,23.96
2023-05-06T10:22:53.683Z,24.13
2023-05-06T10:29:54.442Z,24.60
2023-05-06T10:36:52.079Z,25.03
2023-05-06T10:43:35.394Z,25.13
2023-05-06T10:50:29.309Z,25.60
2023-05-06T10:57:17.764Z,25.27
2023-05-06T11:04:14.549Z,25.19
2023-05-06T11:10:55.810Z,24.65
2023-05-06T11:17:49.654Z,24.37
2023-05-06T11:28:50.241Z,23.82
2023-05-06T11:35:47.185Z,23.72
2023-05-06T11:42:35.131Z,23.57
2023-05-06T11:49:28.771Z,23.75
2023-05-06T11:56:23.684Z,23.49
2023-05-06T12:03:15.715Z,23.37
2023-05-06T12:10:04.357Z,23.49
2023-05-06T12:16:54.666Z,23.54
2023-05-06T12:23:52.619Z,23.34
2023-05-06T12:30:46.514Z,23.32
2023-05-06T12:37:34.765Z,23.22
2023-05-06T12:44:35.301Z,22.92
2023-05-06T12:47:08.767Z,22.87
2023-05-06T12:49:48.804Z,22.84
2023-05-06T12:52:20.615Z,22.22
2023-05-06T12:54:54.250Z,21.53
2023-05-06T12:57:38.791Z,21.09
2023-05-06T13:00:11.075Z,20.60
2023-05-06T13:02:52.774Z,20.25
2023-05-06T13:05:53.136Z,20.08
2023-05-06T13:08:36.224Z,19.93
2023-05-06T13:11:11.599Z,19.81
2023-05-06T13:13:43.199Z,19.74
2023-05-06T13:16:20.766Z,19.63
2023-05-06T13:19:31.625Z,19.46
2023-05-06T13:22:02.932Z,19.38
2023-05-06T13:24:35.380Z,19.36
2023-05-06T13:27:45.727Z,19.33
2023-05-06T13:30:17.074Z,19.20
2023-05-06T13:32:52.733Z,19.19
2023-05-06T13:35:52.349Z,19.09
2023-05-06T13:38:22.031Z,18.98
2023-05-06T13:40:52.918Z,18.71
2023-05-06T13:43:28.526Z,18.29
2023-05-06T13:46:18.525Z,18.17
2023-05-06T13:53:12.535Z,17.89
2023-05-06T13:55:45.209Z,17.71
2023-05-06T13:58:14.947Z,17.32
2023-05-06T14:01:52.349Z,16.93
2023-05-06T14:12:35.746Z,16.75
2023-05-06T14:15:31.016Z,16.66
2023-05-06T14:18:03.764Z,16.62
2023-05-06T14:20:33.238Z,16.65
2023-05-06T14:23:14.052Z,16.79
2023-05-06T14:25:44.516Z,16.73
2023-05-06T14:28:23.878Z,16.69
2023-05-06T14:31:18.647Z,16.73
2023-05-06T14:33:53.293Z,16.79
2023-05-06T14:36:26.220Z,16.82
2023-05-06T14:38:55.638Z,16.89
2023-05-06T14:41:26.316Z,17.02
2023-05-06T14:44:03.295Z,17.14
2023-05-06T14:46:56.623Z,17.38
2023-05-06T14:49:39.351Z,17.68
2023-05-06T14:52:09.885Z,17.95
2023-05-06T14:54:48.954Z,18.24
2023-05-06T14:57:18.312Z,18.43
2023-05-06T15:00:17.817Z,18.54
2023-05-06T15:03:14.326Z,18.79
2023-05-06T15:05:43.716Z,18.96
2023-05-06T15:08:14.112Z,19.17
2023-05-06T15:11:20.168Z,19.40
2023-05-06T15:13:49.437Z,19.57
2023-05-06T15:16:35.011Z,19.58
2023-05-06T15:19:05.909Z,19.65
2023-05-06T15:21:35.282Z,19.71
2023-05-06T15:24:03.547Z,19.74
2023-05-06T15:26:36.097Z,19.84
2023-05-06T15:29:29.057Z,19.93
2023-05-06T15:31:59.516Z,20.13
2023-05-06T15:34:49.455Z,20.37
2023-05-06T15:37:43.551Z,20.68
2023-05-06T15:40:15.101Z,20.88
2023-05-06T15:42:43.450Z,21.05
2023-05-06T15:45:16.615Z,21.16
2023-05-06T15:47:51.213Z,21.19
2023-05-06T15:50:33.259Z,21.29
2023-05-06T15:53:14.684Z,21.36
2023-05-06T15:55:52.977Z,21.33
2023-05-06T15:58:31.358Z,21.16
2023-05-06T16:01:02.338Z,21.01
2023-05-06T16:03:33.192Z,20.92
2023-05-06T16:06:03.651Z,20.85
2023-05-06T16:08:41.015Z,20.76
2023-05-06T16:11:10.556Z,20.71
2023-05-06T16:13:42.344Z,20.63
2023-05-06T16:16:36.083Z,20.57
2023-05-06T16:19:26.323Z,20.53
2023-05-06T16:21:57.139Z,20.60
2023-05-06T16:24:25.680Z,20.63
2023-05-06T16:27:05.839Z,20.67
2023-05-06T16:29:36.258Z,20.73
2023-05-06T16:32:16.027Z,20.73
2023-05-06T16:34:45.411Z,20.70
2023-05-06T16:37:20.453Z,20.67
2023-05-06T16:39:50.933Z,20.64
2023-05-06T16:42:50.544Z,20.54
2023-05-06T16:45:27.489Z,20.47
2023-05-06T16:47:55.916Z,20.39
2023-05-06T16:50:29.364Z,20.34
2023-05-06T16:53:06.790Z,20.28
2023-05-06T16:55:38.172Z,20.18
2023-05-06T16:58:17.385Z,20.11
2023-05-06T17:00:54.505Z,20.01
2023-05-06T17:03:29.460Z,19.96
2023-05-06T17:06:01.771Z,20.02
2023-05-06T17:08:37.125Z,20.02
2023-05-06T17:11:21.087Z,19.86
2023-05-06T17:13:49.560Z,19.63
2023-05-06T17:16:18.769Z,19.49
2023-05-06T17:18:56.311Z,19.46
2023-05-06T17:21:30.222Z,19.40
2023-05-06T17:24:00.553Z,19.36
2023-05-06T17:26:32.583Z,19.27
2023-05-06T17:29:22.585Z,19.27
2023-05-06T17:31:51.972Z,19.26
2023-05-06T17:36:53.651Z,19.23
2023-05-06T17:39:28.890Z,19.23
2023-05-06T17:42:09.507Z,19.19
2023-05-06T17:44:40.011Z,19.07
2023-05-06T17:47:17.573Z,19.03
2023-05-06T17:49:46.989Z,18.99
2023-05-06T17:52:35.056Z,18.96
2023-05-06T17:57:40.976Z,18.95
2023-05-06T18:00:13.533Z,18.88
2023-05-06T18:02:58.190Z,18.84
2023-05-06T18:05:28.063Z,18.79
2023-05-06T18:07:58.835Z,18.81
2023-05-06T18:10:31.290Z,18.79
2023-05-06T18:12:59.834Z,18.67
2023-05-06T18:15:37.739Z,18.57
2023-05-06T18:18:06.638Z,18.52
2023-05-06T18:20:40.009Z,18.47
2023-05-06T18:23:13.650Z,18.43
2023-05-06T18:25:45.219Z,18.43
2023-05-06T18:28:22.672Z,18.45
2023-05-06T18:30:55.338Z,18.38
2023-05-06T18:33:24.457Z,18.30
2023-05-06T18:35:54.342Z,18.29
2023-05-06T18:38:25.007Z,18.29
2023-05-06T18:41:00.172Z,18.30
2023-05-06T18:43:30.233Z,18.18
2023-05-06T18:45:59.679Z,18.04
2023-05-06T18:48:32.023Z,17.95
2023-05-06T18:51:14.517Z,17.96
2023-05-06T18:53:49.460Z,17.89
2023-05-06T18:56:19.374Z,17.86
2023-05-06T18:59:05.375Z,17.76
2023-05-06T19:01:35.612Z,17.79
2023-05-06T19:04:04.344Z,17.83
2023-05-06T19:06:38.743Z,17.85
2023-05-06T19:09:14.386Z,17.82
2023-05-06T19:11:45.194Z,17.75
2023-05-06T19:14:21.725Z,17.71
2023-05-06T19:16:52.788Z,17.61
2023-05-06T19:19:45.854Z,17.59
2023-05-06T19:22:15.594Z,17.61
2023-05-06T19:24:43.832Z,17.57
2023-05-06T19:27:14.382Z,17.52
2023-05-06T19:29:45.013Z,17.49
2023-05-06T19:32:14.441Z,17.44
2023-05-06T19:34:47.346Z,17.38
2023-05-06T19:37:15.933Z,17.35
2023-05-06T19:39:49.748Z,17.32
2023-05-06T19:42:48.094Z,17.26
2023-05-06T19:46:09.339Z,17.26
2023-05-06T19:48:39.243Z,17.24
2023-05-06T19:51:17.803Z,17.20
2023-05-06T19:54:16.111Z,17.16
2023-05-06T19:56:45.765Z,17.17
2023-05-06T19:59:17.700Z,17.13
2023-05-06T20:01:47.290Z,17.04
2023-05-06T20:04:15.898Z,16.96
2023-05-06T20:06:44.644Z,16.92
2023-05-06T20:09:14.583Z,16.90
2023-05-06T20:11:44.648Z,16.86
2023-05-06T20:14:14.260Z,16.89
2023-05-06T20:16:48.985Z,16.84
2023-05-06T20:19:18.823Z,16.86
2023-05-06T20:21:51.093Z,16.82
2023-05-06T20:25:10.773Z,16.77
2023-05-06T20:27:40.635Z,16.71
2023-05-06T20:30:11.362Z,16.26
2023-05-06T20:32:45.787Z,16.13
2023-05-06T20:35:14.478Z,16.14
2023-05-06T20:37:44.277Z,16.22
2023-05-06T20:40:14.771Z,16.18
2023-05-06T20:42:43.746Z,16.17
2023-05-06T20:45:12.405Z,16.22
2023-05-06T20:47:41.980Z,16.29
2023-05-06T20:50:25.890Z,16.34
2023-05-06T20:53:21.063Z,16.34
2023-05-06T20:56:17.712Z,16.36
2023-05-06T20:58:47.072Z,16.36
2023-05-06T21:01:19.753Z,16.31
2023-05-06T21:03:51.958Z,16.25
2023-05-06T21:06:27.040Z,16.22
2023-05-06T21:09:25.332Z,16.22
2023-05-06T21:11:55.435Z,16.21
2023-05-06T21:14:28.248Z,16.20
2023-05-06T21:17:15.172Z,16.20
2023-05-06T21:19:46.480Z,16.21
2023-05-06T21:22:29.354Z,16.21
2023-05-06T21:24:59.846Z,16.18
2023-05-06T21:27:52.155Z,16.10
2023-05-06T21:30:27.073Z,16.00
2023-05-06T21:32:58.553Z,15.87
2023-05-06T21:35:29.295Z,15.85
2023-05-06T21:38:25.469Z,15.86
2023-05-06T21:40:58.148Z,15.77
2023-05-06T21:43:27.616Z,15.73
2023-05-06T21:45:58.310Z,15.73
2023-05-06T21:48:26.792Z,15.69
2023-05-06T21:51:09.070Z,15.60
2023-05-06T21:53:39.303Z,15.62
2023-05-06T21:56:09.657Z,15.59
2023-05-06T21:58:43.083Z,15.58
2023-05-06T22:01:13.467Z,15.58
2023-05-06T22:03:45.287Z,15.53
2023-05-06T22:06:18.195Z,15.55
2023-05-06T22:08:48.113Z,15.53
2023-05-06T22:11:17.591Z,15.58
2023-05-06T22:13:50.533Z,15.67
2023-05-06T22:16:24.271Z,15.70
2023-05-06T22:18:57.036Z,15.73
2023-05-06T22:21:37.709Z,15.76
2023-05-06T22:24:12.468Z,15.76
2023-05-06T22:26:42.829Z,15.77
2023-05-06T22:29:17.207Z,15.53
2023-05-06T22:31:49.591Z,15.18
2023-05-06T22:34:18.251Z,14.95
2023-05-06T22:36:46.966Z,14.83
2023-05-06T22:39:16.978Z,14.93
2023-05-06T22:41:45.905Z,14.98
2023-05-06T22:44:17.454Z,14.91
2023-05-06T22:47:44.980Z,14.80
2023-05-06T22:50:15.741Z,14.81
2023-05-06T22:52:56.474Z,14.87
2023-05-06T22:55:27.521Z,14.87
2023-05-06T22:57:57.831Z,14.85
2023-05-06T23:00:31.397Z,14.87
2023-05-06T23:03:12.284Z,14.81
2023-05-06T23:05:42.258Z,14.79
2023-05-06T23:08:15.887Z,14.76
2023-05-06T23:10:48.116Z,14.73
2023-05-06T23:13:26.624Z,14.73
2023-05-06T23:15:56.475Z,14.70
2023-05-06T23:18:28.782Z,14.63
2023-05-06T23:21:04.194Z,14.64
2023-05-06T23:23:35.025Z,14.72
2023-05-06T23:26:05.016Z,14.79
2023-05-06T23:28:35.457Z,14.76
2023-05-06T23:31:05.877Z,14.55
2023-05-06T23:33:36.274Z,14.39
2023-05-06T23:36:05.853Z,14.29
2023-05-06T23:38:35.172Z,14.24
2023-05-06T23:41:14.435Z,14.17
2023-05-06T23:43:43.767Z,14.07
2023-05-06T23:46:14.288Z,13.94
2023-05-06T23:49:14.360Z,13.88
2023-05-06T23:51:43.809Z,13.87
2023-05-06T23:54:18.590Z,13.87
2023-05-06T23:56:49.362Z,13.91
2023-05-06T23:59:21.610Z,13.94
